Time;durP1;ratioP1;P1;durP2;ratioP2;P2;SDS_P1;SDS_P2;PMS_P1;PMS_P2;Temp;Humidity;BMP_temperature;BMP_pressure;BME280_temperature;BME280_humidity;BME280_pressure;Samples;Min_cycle;Max_cycle;Signal;HPM_P1;HPM_P2
2022/12/31 00:01:48;;;;;;;0.90;0.80;;;11.60;99.90;;;;;;5035732;28;20202;-70
2022/12/31 00:04:13;;;;;;;1.40;1.30;;;11.60;99.90;;;;;;5035777;28;20563;-70
2022/12/31 00:06:39;;;;;;;1.73;1.03;;;11.60;99.90;;;;;;5035803;28;20174;-70
2022/12/31 00:09:06;;;;;;;1.10;1.00;;;11.60;99.90;;;;;;5035542;28;20170;-70
2022/12/31 00:11:33;;;;;;;1.10;1.00;;;11.60;99.90;;;;;;5035655;28;20198;-70
2022/12/31 00:13:59;;;;;;;1.40;0.90;;;11.70;99.90;;;;;;5036265;28;20440;-68
2022/12/31 00:16:27;;;;;;;1.13;1.03;;;11.70;99.90;;;;;;5035676;28;20796;-69
2022/12/31 00:18:58;;;;;;;0.80;0.80;;;11.70;99.90;;;;;;5035572;28;20440;-69
2022/12/31 00:21:24;;;;;;;0.93;0.90;;;11.70;99.90;;;;;;5035552;28;21153;-69
2022/12/31 00:23:50;;;;;;;0.90;0.90;;;11.70;99.90;;;;;;5035463;28;20983;-69
2022/12/31 00:26:19;;;;;;;1.23;0.90;;;11.70;99.90;;;;;;5035507;28;20453;-69
2022/12/31 00:28:46;;;;;;;1.10;1.00;;;11.70;99.90;;;;;;5035225;28;20209;-70
2022/12/31 00:31:18;;;;;;;0.70;0.70;;;11.80;99.90;;;;;;5035405;28;20404;-69
2022/12/31 00:33:44;;;;;;;1.60;1.03;;;11.80;99.90;;;;;;5035312;28;20472;-69
2022/12/31 00:36:15;;;;;;;1.07;1.00;;;11.80;99.90;;;;;;5035526;28;20416;-69
2022/12/31 00:38:43;;;;;;;3.30;0.97;;;11.80;99.90;;;;;;5035047;28;20413;-69
2022/12/31 00:41:09;;;;;;;1.53;0.90;;;11.90;99.90;;;;;;5035191;28;20453;-69
2022/12/31 00:43:35;;;;;;;1.20;1.00;;;11.90;99.90;;;;;;5035391;28;20464;-70
2022/12/31 00:46:02;;;;;;;1.10;1.00;;;11.90;99.90;;;;;;5035117;28;20451;-68
2022/12/31 00:48:28;;;;;;;1.17;1.07;;;12.00;99.90;;;;;;5034793;28;20413;-69
2022/12/31 00:50:54;;;;;;;1.73;1.40;;;12.00;99.90;;;;;;5035046;28;20421;-69
2022/12/31 00:53:20;;;;;;;5.20;1.27;;;12.00;99.90;;;;;;5034957;28;20437;-69
2022/12/31 00:55:46;;;;;;;1.10;1.10;;;12.10;99.90;;;;;;5035065;28;20763;-69
2022/12/31 00:58:12;;;;;;;1.50;1.00;;;12.20;99.90;;;;;;5034783;28;20416;-69
2022/12/31 01:00:38;;;;;;;1.20;1.10;;;12.20;99.90;;;;;;5034698;28;20264;-69
2022/12/31 01:03:05;;;;;;;1.60;0.80;;;12.30;99.90;;;;;;5034757;28;20248;-69
2022/12/31 01:05:31;;;;;;;2.17;1.20;;;12.30;99.90;;;;;;5034799;28;20432;-69
2022/12/31 01:07:57;;;;;;;3.50;1.20;;;12.40;99.90;;;;;;5034161;28;20523;-68
2022/12/31 01:13:06;;;;;;;0.87;0.87;;;12.50;99.90;;;;;;5034496;28;20749;-69
2022/12/31 01:15:36;;;;;;;2.13;1.00;;;12.50;99.90;;;;;;5034639;28;20425;-69
2022/12/31 01:18:03;;;;;;;1.40;1.00;;;12.60;99.90;;;;;;5034615;28;20166;-69
2022/12/31 01:20:29;;;;;;;1.17;1.10;;;12.70;99.90;;;;;;5034137;28;20448;-69
2022/12/31 01:22:55;;;;;;;1.30;1.20;;;12.70;99.90;;;;;;5034650;28;20433;-69
2022/12/31 01:25:20;;;;;;;1.53;1.10;;;12.70;99.90;;;;;;5034645;28;20415;-69
2022/12/31 01:27:46;;;;;;;1.10;1.00;;;12.70;99.90;;;;;;5034318;28;20166;-69
2022/12/31 01:30:12;;;;;;;1.27;1.07;;;12.70;99.90;;;;;;5034157;28;20170;-70
2022/12/31 01:32:37;;;;;;;1.03;1.03;;;12.80;99.90;;;;;;5034287;28;20194;-69
2022/12/31 01:35:03;;;;;;;3.53;1.27;;;12.80;99.90;;;;;;5034159;28;20245;-69
2022/12/31 01:37:29;;;;;;;1.37;1.27;;;12.80;99.90;;;;;;5034195;28;20519;-68
2022/12/31 01:39:54;;;;;;;2.03;1.10;;;12.80;99.90;;;;;;5034167;28;20269;-69
2022/12/31 01:42:20;;;;;;;1.10;1.00;;;12.80;99.90;;;;;;5033907;28;20198;-68
2022/12/31 01:44:54;;;;;;;2.37;1.07;;;12.80;99.90;;;;;;5034076;28;20624;-70
2022/12/31 01:47:52;;;;;;;1.20;1.10;;;12.80;99.90;;;;;;5034058;28;20197;-68
2022/12/31 01:50:28;;;;;;;0.80;0.80;;;12.80;99.90;;;;;;5018070;28;20425;-69
2022/12/31 01:52:57;;;;;;;0.87;0.87;;;12.80;99.90;;;;;;5034183;28;20445;-69
2022/12/31 01:55:27;;;;;;;1.43;1.07;;;12.80;99.90;;;;;;5034058;28;20409;-68
2022/12/31 01:58:00;;;;;;;1.67;0.97;;;12.80;99.90;;;;;;5033828;28;20467;-70
2022/12/31 02:00:25;;;;;;;1.10;1.00;;;12.70;99.90;;;;;;5033553;28;20962;-69
2022/12/31 02:02:51;;;;;;;1.77;1.00;;;12.70;99.90;;;;;;5033552;28;20440;-69
2022/12/31 02:05:31;;;;;;;1.30;1.20;;;12.70;99.90;;;;;;5033669;28;20178;-69
2022/12/31 02:07:58;;;;;;;2.77;1.77;;;12.80;99.90;;;;;;5033654;28;20499;-69
2022/12/31 02:10:24;;;;;;;1.50;1.40;;;12.80;99.90;;;;;;5033308;28;20425;-69
2022/12/31 02:12:50;;;;;;;1.70;1.00;;;12.70;99.90;;;;;;5033392;28;20467;-69
2022/12/31 02:15:17;;;;;;;3.40;1.20;;;12.70;99.90;;;;;;5033508;28;20499;-69
2022/12/31 02:18:24;;;;;;;0.90;0.90;;;12.70;99.90;;;;;;5033368;28;20424;-68
2022/12/31 02:21:17;;;;;;;1.83;1.00;;;12.70;99.90;;;;;;5032085;28;20460;-69
2022/12/31 02:23:42;;;;;;;0.90;0.90;;;12.70;99.90;;;;;;5033310;28;20539;-69
2022/12/31 02:26:23;;;;;;;1.30;1.20;;;12.60;99.90;;;;;;5033233;28;20493;-69
2022/12/31 02:29:19;;;;;;;1.30;1.20;;;12.70;99.90;;;;;;5032962;28;20174;-70
2022/12/31 02:31:51;;;;;;;3.20;1.13;;;12.70;99.90;;;;;;5033196;28;20413;-69
2022/12/31 02:34:36;;;;;;;1.20;1.10;;;12.70;99.90;;;;;;5033136;28;20440;-69
2022/12/31 02:37:06;;;;;;;1.03;0.97;;;12.70;99.90;;;;;;5033161;28;20422;-68
2022/12/31 02:39:34;;;;;;;1.50;0.97;;;12.70;99.90;;;;;;5032878;28;20479;-69
2022/12/31 02:42:01;;;;;;;0.87;0.77;;;12.80;99.90;;;;;;5032936;28;20471;-70
2022/12/31 02:44:28;;;;;;;1.40;1.30;;;12.80;99.90;;;;;;5033260;28;20839;-69
2022/12/31 02:47:09;;;;;;;1.50;0.87;;;12.90;99.90;;;;;;5032749;28;20416;-69
2022/12/31 02:50:01;;;;;;;1.40;1.30;;;12.90;99.90;;;;;;5032566;28;20421;-69
2022/12/31 02:52:34;;;;;;;2.10;0.90;;;13.00;99.90;;;;;;5032777;28;20806;-69
2022/12/31 02:55:12;;;;;;;1.40;1.30;;;13.10;99.90;;;;;;5032773;28;20413;-68
2022/12/31 02:57:46;;;;;;;1.30;1.20;;;13.20;99.90;;;;;;5032676;28;20550;-69
2022/12/31 03:03:00;;;;;;;1.17;0.97;;;13.20;99.90;;;;;;5032679;28;20506;-69
2022/12/31 03:05:29;;;;;;;1.50;1.13;;;13.30;99.90;;;;;;5032549;28;20421;-69
2022/12/31 03:07:55;;;;;;;1.20;0.90;;;13.30;99.90;;;;;;5032553;28;20419;-69
2022/12/31 03:10:20;;;;;;;1.10;1.00;;;13.40;99.90;;;;;;5032222;28;20413;-69
2022/12/31 03:12:47;;;;;;;0.83;0.83;;;13.40;99.90;;;;;;5032311;28;20210;-69
2022/12/31 03:15:20;;;;;;;1.13;1.03;;;13.40;99.90;;;;;;5032454;28;20166;-69
2022/12/31 03:18:13;;;;;;;0.73;0.73;;;13.40;99.90;;;;;;5014624;28;20491;-69
2022/12/31 03:23:39;;;;;;;1.43;1.33;;;13.40;99.90;;;;;;5032308;28;20960;-68
2022/12/31 03:26:10;;;;;;;3.43;1.03;;;13.40;99.90;;;;;;5032156;28;20420;-68
2022/12/31 03:28:38;;;;;;;1.00;1.00;;;13.50;99.90;;;;;;5032036;28;20496;-70
2022/12/31 03:31:04;;;;;;;1.77;0.83;;;13.50;99.90;;;;;;5032040;28;20417;-69
2022/12/31 03:33:33;;;;;;;1.73;1.10;;;13.50;99.90;;;;;;5032075;28;20444;-68
2022/12/31 03:36:01;;;;;;;1.43;0.73;;;13.60;99.90;;;;;;5032085;28;20429;-69
2022/12/31 03:38:26;;;;;;;0.80;0.80;;;13.70;99.90;;;;;;5031913;28;20457;-69
2022/12/31 03:40:52;;;;;;;1.07;0.97;;;13.70;99.90;;;;;;5031913;28;20456;-69
2022/12/31 03:43:19;;;;;;;1.97;1.37;;;13.80;99.90;;;;;;5032058;28;20214;-69
2022/12/31 03:45:52;;;;;;;0.90;0.90;;;13.80;99.90;;;;;;5032026;28;20443;-69
2022/12/31 03:48:20;;;;;;;1.27;0.80;;;13.90;99.90;;;;;;5031853;28;20405;-70
2022/12/31 03:50:46;;;;;;;1.17;1.07;;;13.90;99.90;;;;;;5032048;28;20417;-69
2022/12/31 03:53:12;;;;;;;1.27;1.17;;;13.90;99.90;;;;;;5031945;28;20447;-70
2022/12/31 03:55:37;;;;;;;2.10;1.10;;;13.90;99.90;;;;;;5031898;28;20550;-68
2022/12/31 03:58:03;;;;;;;1.00;0.90;;;14.00;99.90;;;;;;5031891;28;20300;-69
2022/12/31 04:00:28;;;;;;;1.60;1.20;;;14.00;99.90;;;;;;5031609;28;20198;-70
2022/12/31 04:02:54;;;;;;;4.63;0.97;;;14.00;99.90;;;;;;5031811;28;20190;-68
2022/12/31 04:05:21;;;;;;;1.57;1.00;;;14.00;99.90;;;;;;5031884;28;20253;-69
2022/12/31 04:07:46;;;;;;;1.20;1.10;;;14.00;99.90;;;;;;5031889;28;20633;-68
2022/12/31 04:10:14;;;;;;;1.00;0.90;;;14.00;99.90;;;;;;5031467;28;20416;-69
2022/12/31 04:12:40;;;;;;;1.40;0.80;;;14.10;99.90;;;;;;5031664;28;20208;-69
2022/12/31 04:15:07;;;;;;;1.47;1.00;;;14.10;99.90;;;;;;5031728;28;20504;-69
2022/12/31 04:17:32;;;;;;;1.33;1.10;;;14.20;99.90;;;;;;5031638;28;20162;-68
2022/12/31 04:19:58;;;;;;;1.33;1.23;;;14.20;99.90;;;;;;5031476;28;20505;-68
2022/12/31 04:22:23;;;;;;;1.73;0.93;;;14.20;99.90;;;;;;5031605;28;20585;-68
2022/12/31 04:24:49;;;;;;;1.00;0.80;;;14.20;99.90;;;;;;5031629;28;20707;-69
2022/12/31 04:27:14;;;;;;;0.80;0.80;;;14.30;99.90;;;;;;5031695;28;20174;-68
2022/12/31 04:29:40;;;;;;;1.10;0.90;;;14.30;99.90;;;;;;5031418;28;20170;-69
2022/12/31 04:32:07;;;;;;;1.50;1.20;;;14.30;99.90;;;;;;5031551;28;20675;-69
2022/12/31 04:34:32;;;;;;;1.30;1.10;;;14.30;99.90;;;;;;5031577;28;20675;-69
2022/12/31 04:36:58;;;;;;;1.00;0.80;;;14.20;99.90;;;;;;5031586;28;20452;-69
2022/12/31 04:39:24;;;;;;;0.93;0.80;;;14.10;99.90;;;;;;5031280;28;20612;-70
2022/12/31 04:41:49;;;;;;;3.03;0.97;;;14.20;99.90;;;;;;5031391;28;20198;-68
2022/12/31 04:44:15;;;;;;;1.03;0.93;;;14.10;99.90;;;;;;5034998;28;20193;-68
2022/12/31 04:46:41;;;;;;;2.10;0.90;;;14.10;99.90;;;;;;5035252;28;20644;-68
2022/12/31 04:49:07;;;;;;;1.03;1.03;;;14.20;99.90;;;;;;5034940;28;20770;-70
2022/12/31 04:51:32;;;;;;;0.93;0.90;;;14.30;99.90;;;;;;5035155;28;20170;-69
2022/12/31 04:53:58;;;;;;;0.90;0.90;;;14.30;99.90;;;;;;5034966;28;20186;-69
2022/12/31 04:56:25;;;;;;;2.60;0.83;;;14.20;99.90;;;;;;5035067;28;20197;-68
2022/12/31 04:58:51;;;;;;;1.00;0.90;;;14.20;99.90;;;;;;5034786;28;20836;-69
2022/12/31 05:01:16;;;;;;;0.80;0.80;;;14.10;99.90;;;;;;5034889;28;20460;-69
2022/12/31 05:03:42;;;;;;;1.10;1.00;;;14.10;99.90;;;;;;5035091;28;20194;-69
2022/12/31 05:06:19;;;;;;;0.80;0.80;;;14.10;99.90;;;;;;5034869;28;20240;-69
2022/12/31 05:08:45;;;;;;;1.10;1.10;;;14.00;99.90;;;;;;5034694;28;20159;-69
2022/12/31 05:11:11;;;;;;;2.20;0.90;;;14.00;99.90;;;;;;5034649;28;20467;-69
2022/12/31 05:13:37;;;;;;;1.17;0.97;;;13.90;99.90;;;;;;5034667;28;20432;-69
2022/12/31 05:16:03;;;;;;;1.00;1.00;;;13.90;99.90;;;;;;5034602;28;20167;-69
2022/12/31 05:18:29;;;;;;;1.00;0.80;;;13.90;99.90;;;;;;5034371;28;20707;-68
2022/12/31 05:20:55;;;;;;;0.80;0.70;;;13.90;99.90;;;;;;5034454;28;20457;-69
2022/12/31 05:23:21;;;;;;;1.10;1.10;;;13.90;99.90;;;;;;5034418;28;21008;-68
2022/12/31 05:25:47;;;;;;;0.80;0.80;;;13.80;99.90;;;;;;5034529;28;20715;-69
2022/12/31 05:28:14;;;;;;;1.20;0.70;;;13.80;99.90;;;;;;5034270;28;20428;-69
2022/12/31 05:30:40;;;;;;;1.00;1.00;;;13.80;99.90;;;;;;5034453;28;20417;-69
2022/12/31 05:33:05;;;;;;;1.53;0.90;;;13.80;99.90;;;;;;5034260;28;20456;-69
2022/12/31 05:35:31;;;;;;;1.20;1.10;;;13.80;99.90;;;;;;5034236;28;20421;-70
2022/12/31 05:37:58;;;;;;;0.90;0.90;;;13.90;99.90;;;;;;5034216;28;20541;-68
2022/12/31 05:40:23;;;;;;;2.10;0.93;;;13.90;99.90;;;;;;5033920;28;20174;-69
2022/12/31 05:42:49;;;;;;;2.23;1.20;;;13.90;99.90;;;;;;5034128;28;20455;-68
2022/12/31 05:45:15;;;;;;;1.10;1.00;;;13.80;99.90;;;;;;5034144;28;20170;-69
2022/12/31 05:47:41;;;;;;;1.63;1.10;;;13.80;99.90;;;;;;5034109;28;20471;-69
2022/12/31 05:50:09;;;;;;;1.53;0.70;;;13.80;99.90;;;;;;5033833;28;20922;-69
2022/12/31 05:52:35;;;;;;;1.43;1.13;;;13.90;99.90;;;;;;5033815;28;20206;-69
2022/12/31 05:55:01;;;;;;;1.17;0.90;;;13.80;99.90;;;;;;5033847;28;20431;-69
2022/12/31 05:57:26;;;;;;;1.20;1.00;;;13.70;99.90;;;;;;5033926;28;20930;-70
2022/12/31 05:59:52;;;;;;;1.03;1.00;;;13.70;99.90;;;;;;5033946;28;20170;-69
2022/12/31 06:02:18;;;;;;;1.10;1.00;;;13.70;99.90;;;;;;5033622;28;20684;-69
2022/12/31 06:04:44;;;;;;;2.00;0.90;;;13.70;99.90;;;;;;5033775;28;20198;-69
2022/12/31 06:07:09;;;;;;;1.30;1.20;;;13.70;99.90;;;;;;5033672;28;20829;-70
2022/12/31 06:09:35;;;;;;;1.80;1.07;;;13.60;99.90;;;;;;5033755;28;20174;-69
2022/12/31 06:12:00;;;;;;;0.90;0.90;;;13.60;99.90;;;;;;5033372;28;20656;-69
2022/12/31 06:14:26;;;;;;;1.50;1.40;;;13.60;99.90;;;;;;5034063;28;20179;-69
2022/12/31 06:16:51;;;;;;;1.40;1.10;;;13.60;99.90;;;;;;5033529;28;20660;-70
2022/12/31 06:19:17;;;;;;;2.00;1.07;;;13.60;99.90;;;;;;5033128;28;20790;-70
2022/12/31 06:21:42;;;;;;;3.73;1.30;;;13.60;99.90;;;;;;5033540;28;20561;-69
2022/12/31 06:24:08;;;;;;;1.87;1.07;;;13.60;99.90;;;;;;5033480;28;20190;-70
2022/12/31 06:26:33;;;;;;;1.30;1.20;;;13.60;99.90;;;;;;5033643;28;20174;-69
2022/12/31 06:28:59;;;;;;;0.90;0.90;;;13.60;99.90;;;;;;5033064;28;20217;-70
2022/12/31 06:31:24;;;;;;;1.73;1.20;;;13.50;99.90;;;;;;5033186;28;20177;-69
2022/12/31 06:33:50;;;;;;;1.00;1.00;;;13.60;99.90;;;;;;5032983;28;20245;-70
2022/12/31 06:36:16;;;;;;;1.00;0.97;;;13.60;99.90;;;;;;5033115;28;20183;-70
2022/12/31 06:38:42;;;;;;;1.13;1.03;;;13.50;99.90;;;;;;5032953;28;20174;-70
2022/12/31 06:41:13;;;;;;;1.20;0.90;;;13.50;99.90;;;;;;5032956;28;20248;-70
2022/12/31 06:43:40;;;;;;;1.20;1.10;;;13.60;99.90;;;;;;5032910;28;20440;-69
2022/12/31 06:46:08;;;;;;;1.73;1.10;;;13.50;99.90;;;;;;5033098;28;20417;-70
2022/12/31 06:48:34;;;;;;;1.67;1.57;;;13.50;99.90;;;;;;5032575;28;20786;-69
2022/12/31 06:51:20;;;;;;;1.63;0.93;;;13.60;99.90;;;;;;5032862;28;20425;-69
2022/12/31 06:53:47;;;;;;;1.53;1.00;;;13.60;99.90;;;;;;5032709;28;20198;-68
2022/12/31 06:56:21;;;;;;;1.10;1.00;;;13.60;99.90;;;;;;5032658;28;20439;-70
2022/12/31 06:58:48;;;;;;;1.17;1.07;;;13.60;99.90;;;;;;5032467;28;20435;-70
2022/12/31 07:01:32;;;;;;;1.30;1.00;;;13.50;99.90;;;;;;5032594;28;20548;-70
2022/12/31 07:04:12;;;;;;;1.43;1.20;;;13.50;99.90;;;;;;5032599;28;20436;-70
2022/12/31 07:06:46;;;;;;;1.00;1.00;;;13.50;99.90;;;;;;5032129;28;20415;-70
2022/12/31 07:09:24;;;;;;;0.93;0.90;;;13.50;99.90;;;;;;5032194;28;20463;-70
2022/12/31 07:11:55;;;;;;;1.50;1.10;;;13.50;99.90;;;;;;5032290;28;20436;-70
2022/12/31 07:14:36;;;;;;;1.63;1.20;;;13.50;99.90;;;;;;5032425;28;20455;-70
2022/12/31 07:17:19;;;;;;;1.30;1.20;;;13.50;99.90;;;;;;5032520;28;20462;-70
2022/12/31 07:19:44;;;;;;;1.33;1.10;;;13.50;99.90;;;;;;5032069;28;20938;-70
2022/12/31 07:22:14;;;;;;;1.70;0.90;;;13.50;99.90;;;;;;5032111;28;20464;-70
2022/12/31 07:24:40;;;;;;;1.40;1.30;;;13.60;99.90;;;;;;5032335;28;20166;-70
2022/12/31 07:27:34;;;;;;;1.40;1.30;;;13.60;99.90;;;;;;5032261;28;20416;-70
2022/12/31 07:30:19;;;;;;;1.83;1.40;;;13.60;99.90;;;;;;5032010;28;20413;-70
2022/12/31 07:33:03;;;;;;;1.50;1.40;;;13.70;99.90;;;;;;5032215;28;20429;-70
2022/12/31 07:36:10;;;;;;;1.30;1.20;;;13.80;99.90;;;;;;5032168;28;20453;-70
2022/12/31 07:38:57;;;;;;;1.07;0.97;;;13.90;99.90;;;;;;5031785;28;20415;-69
2022/12/31 07:41:57;;;;;;;0.90;0.90;;;13.90;99.90;;;;;;5032265;28;20484;-69
2022/12/31 07:44:50;;;;;;;1.17;0.83;;;13.90;99.90;;;;;;5027167;28;20853;-70
2022/12/31 07:47:19;;;;;;;2.30;1.00;;;13.90;99.90;;;;;;5031953;28;20456;-71
2022/12/31 07:49:45;;;;;;;3.90;1.77;;;13.90;99.90;;;;;;5031689;28;20424;-70
2022/12/31 07:52:11;;;;;;;0.97;0.83;;;14.00;99.90;;;;;;5031886;28;20530;-69
2022/12/31 07:54:36;;;;;;;1.80;1.20;;;14.00;99.90;;;;;;5031970;28;20437;-70
2022/12/31 07:57:02;;;;;;;1.07;0.90;;;14.00;99.90;;;;;;5031939;28;20648;-69
2022/12/31 07:59:59;;;;;;;2.00;0.80;;;14.10;99.90;;;;;;5031611;28;20180;-70
2022/12/31 08:03:02;;;;;;;1.10;0.90;;;14.10;99.90;;;;;;5031874;28;20210;-69
2022/12/31 08:06:09;;;;;;;1.57;1.30;;;14.10;99.90;;;;;;5031822;28;20416;-69
2022/12/31 08:09:05;;;;;;;1.27;1.17;;;14.20;99.90;;;;;;5009886;28;20519;-69
2022/12/31 08:11:40;;;;;;;1.63;1.33;;;14.30;99.90;;;;;;5031654;28;20464;-69
2022/12/31 08:14:10;;;;;;;1.50;1.40;;;14.40;99.90;;;;;;5031625;28;20531;-70
2022/12/31 08:16:36;;;;;;;1.73;1.60;;;14.50;99.90;;;;;;5031756;28;20427;-70
2022/12/31 08:19:03;;;;;;;1.60;1.50;;;14.50;99.90;;;;;;5034647;28;20409;-69
2022/12/31 08:21:55;;;;;;;3.17;1.97;;;14.60;99.90;;;;;;5035561;28;20695;-70
2022/12/31 08:24:34;;;;;;;2.30;1.50;;;14.60;99.90;;;;;;5035555;28;20470;-70
2022/12/31 08:27:15;;;;;;;2.43;1.87;;;14.70;99.90;;;;;;5035550;28;20420;-70
2022/12/31 08:30:05;;;;;;;2.60;1.50;;;14.80;99.90;;;;;;5035263;28;20436;-70
2022/12/31 08:32:42;;;;;;;2.70;1.97;;;15.30;99.90;;;;;;5035447;28;20440;-69
2022/12/31 08:35:20;;;;;;;1.83;1.30;;;16.00;99.90;;;;;;5035446;28;20479;-69
2022/12/31 08:38:28;;;;;;;3.63;1.63;;;16.50;99.90;;;;;;5035384;28;20470;-70
2022/12/31 08:41:11;;;;;;;1.73;1.50;;;17.20;99.90;;;;;;5034963;28;20468;-70
2022/12/31 08:44:14;;;;;;;1.93;1.73;;;17.40;99.90;;;;;;5035226;28;20436;-70
2022/12/31 08:46:46;;;;;;;2.03;1.50;;;16.50;99.90;;;;;;5035214;28;20412;-70
2022/12/31 08:49:13;;;;;;;2.20;1.40;;;16.00;99.90;;;;;;5034863;28;20412;-70
2022/12/31 08:51:39;;;;;;;2.27;1.50;;;15.70;99.90;;;;;;5035099;28;20413;-70
2022/12/31 08:54:05;;;;;;;5.07;1.47;;;15.40;99.90;;;;;;5035097;28;20459;-70
2022/12/31 08:56:39;;;;;;;1.23;1.13;;;15.30;99.90;;;;;;5035041;28;20170;-70
2022/12/31 08:59:33;;;;;;;1.47;1.10;;;15.20;99.90;;;;;;5034663;28;20917;-70
2022/12/31 09:02:10;;;;;;;1.50;1.20;;;15.20;99.90;;;;;;5034783;28;20448;-70
2022/12/31 09:04:47;;;;;;;4.00;1.57;;;15.20;99.90;;;;;;5034936;28;20436;-70
2022/12/31 09:07:15;;;;;;;1.60;1.10;;;15.30;99.90;;;;;;5034885;28;20793;-69
2022/12/31 09:09:57;;;;;;;1.20;1.10;;;15.30;99.90;;;;;;5034359;28;20443;-69
2022/12/31 09:12:36;;;;;;;2.13;1.10;;;15.40;99.90;;;;;;5034526;28;20459;-70
2022/12/31 09:15:09;;;;;;;1.63;1.53;;;15.60;99.90;;;;;;5034699;28;20413;-70
2022/12/31 09:17:40;;;;;;;1.50;1.40;;;15.70;99.90;;;;;;5034665;28;20492;-70
2022/12/31 09:20:14;;;;;;;0.90;0.90;;;16.10;99.90;;;;;;5034213;28;20417;-69
2022/12/31 09:22:40;;;;;;;1.77;1.50;;;16.60;99.90;;;;;;5034356;28;21111;-70
2022/12/31 09:25:06;;;;;;;2.70;2.50;;;17.50;99.90;;;;;;5034619;28;20516;-71
2022/12/31 09:27:41;;;;;;;1.63;1.40;;;18.50;99.90;;;;;;5034358;28;20508;-70
2022/12/31 09:30:12;;;;;;;1.43;1.33;;;19.20;99.90;;;;;;5033641;28;20417;-70
2022/12/31 09:32:47;;;;;;;1.20;1.10;;;19.60;99.90;;;;;;5034309;28;20433;-70
2022/12/31 09:35:24;;;;;;;1.10;1.00;;;20.00;99.90;;;;;;5034320;28;20424;-71
2022/12/31 09:37:54;;;;;;;2.33;1.60;;;20.80;99.90;;;;;;5034379;28;20500;-71
2022/12/31 09:40:45;;;;;;;1.50;1.40;;;21.60;99.90;;;;;;5033970;28;20421;-70
2022/12/31 09:44:06;;;;;;;1.33;1.07;;;21.50;99.90;;;;;;5034077;28;20535;-71
2022/12/31 09:47:09;;;;;;;1.10;1.00;;;21.60;99.90;;;;;;5034094;28;20417;-71
2022/12/31 09:49:53;;;;;;;1.80;1.70;;;22.10;99.90;;;;;;5033708;28;20495;-70
2022/12/31 09:52:37;;;;;;;1.20;1.10;;;22.30;99.90;;;;;;5034011;28;20531;-70
2022/12/31 09:55:11;;;;;;;1.50;1.40;;;21.90;99.90;;;;;;5033923;28;20421;-71
2022/12/31 09:58:11;;;;;;;2.03;1.10;;;22.20;99.90;;;;;;5033924;28;20416;-71
2022/12/31 10:00:52;;;;;;;1.63;1.10;;;21.90;99.90;;;;;;5033757;28;20417;-71
2022/12/31 10:03:57;;;;;;;1.90;1.03;;;22.00;99.90;;;;;;5033782;28;20428;-70
2022/12/31 10:06:41;;;;;;;0.97;0.97;;;21.90;99.90;;;;;;5033686;28;20416;-70
2022/12/31 10:09:44;;;;;;;1.17;1.07;;;22.10;99.90;;;;;;5033357;28;20413;-70
2022/12/31 10:12:36;;;;;;;2.40;0.90;;;22.70;99.90;;;;;;5033368;28;20451;-71
2022/12/31 10:15:34;;;;;;;0.90;0.90;;;23.30;99.90;;;;;;5033547;28;20462;-70
2022/12/31 10:18:36;;;;;;;1.43;1.20;;;22.70;99.90;;;;;;5033505;28;20409;-71
2022/12/31 10:21:27;;;;;;;1.33;1.23;;;23.40;99.90;;;;;;5033331;28;20495;-70
2022/12/31 10:24:08;;;;;;;0.93;0.80;;;23.50;98.90;;;;;;5033229;28;20445;-70
2022/12/31 10:27:08;;;;;;;8.07;7.27;;;23.70;97.60;;;;;;5033415;28;20423;-70
2022/12/31 10:29:45;;;;;;;1.33;1.23;;;24.90;95.90;;;;;;5033016;28;20790;-71
2022/12/31 10:32:16;;;;;;;1.07;0.70;;;25.40;92.80;;;;;;5033379;28;20477;-70
2022/12/31 10:35:11;;;;;;;1.10;1.00;;;24.90;92.50;;;;;;5033312;28;20945;-70
2022/12/31 10:37:45;;;;;;;1.20;1.10;;;24.10;93.40;;;;;;5033085;28;20459;-71
2022/12/31 10:40:20;;;;;;;1.13;1.03;;;24.20;94.00;;;;;;5032089;28;20995;-70
2022/12/31 10:43:19;;;;;;;1.30;1.20;;;24.40;93.40;;;;;;5033120;28;20444;-71
2022/12/31 10:46:10;;;;;;;2.03;1.20;;;24.60;91.90;;;;;;5032897;28;20455;-71
2022/12/31 10:48:58;;;;;;;1.90;1.17;;;23.70;93.10;;;;;;5032759;28;20417;-70
2022/12/31 10:51:35;;;;;;;1.00;0.90;;;23.90;92.90;;;;;;5032270;28;20499;-71
2022/12/31 10:54:40;;;;;;;1.97;1.53;;;24.30;92.50;;;;;;5032790;28;20503;-70
2022/12/31 10:57:44;;;;;;;1.10;0.97;;;24.70;91.50;;;;;;5032714;28;20429;-70
2022/12/31 11:00:11;;;;;;;2.73;1.10;;;24.20;91.50;;;;;;5032571;28;20412;-71
2022/12/31 11:03:21;;;;;;;1.90;0.90;;;24.50;91.30;;;;;;5032489;28;20514;-70
2022/12/31 11:06:18;;;;;;;1.20;1.10;;;24.40;91.10;;;;;;5032461;28;21092;-71
2022/12/31 11:08:43;;;;;;;0.80;0.80;;;24.40;90.50;;;;;;5032296;28;20412;-69
2022/12/31 11:11:50;;;;;;;1.20;1.10;;;24.40;90.40;;;;;;5032370;28;20409;-71
2022/12/31 11:14:40;;;;;;;1.20;1.10;;;24.30;90.00;;;;;;5005425;28;20204;-70
2022/12/31 11:17:32;;;;;;;1.17;1.00;;;24.20;89.60;;;;;;5032424;28;20419;-71
2022/12/31 11:20:27;;;;;;;1.03;0.90;;;24.00;90.30;;;;;;5032042;28;20401;-71
2022/12/31 11:23:19;;;;;;;1.40;1.30;;;24.00;89.70;;;;;;5032369;28;20453;-70
2022/12/31 11:25:59;;;;;;;0.97;0.97;;;24.00;91.20;;;;;;5021622;28;20428;-71
2022/12/31 11:28:39;;;;;;;1.53;1.43;;;23.90;89.60;;;;;;5031952;28;20440;-70
2022/12/31 11:31:33;;;;;;;1.00;0.90;;;23.80;90.40;;;;;;5032069;28;20925;-71
2022/12/31 11:34:13;;;;;;;1.63;1.40;;;24.10;90.40;;;;;;5032123;28;20479;-71
2022/12/31 11:37:17;;;;;;;1.20;1.10;;;24.80;88.60;;;;;;5032148;28;20909;-71
2022/12/31 11:39:59;;;;;;;1.50;1.13;;;24.90;86.80;;;;;;5031799;28;20412;-71
2022/12/31 11:42:43;;;;;;;2.90;2.33;;;25.30;84.70;;;;;;5031997;28;20460;-71
2022/12/31 11:45:19;;;;;;;0.97;0.87;;;26.20;82.50;;;;;;5031941;28;20404;-71
2022/12/31 11:48:23;;;;;;;1.40;1.30;;;25.80;81.60;;;;;;5032008;28;20929;-71
2022/12/31 11:51:26;;;;;;;1.67;1.57;;;25.60;80.90;;;;;;5031649;28;20412;-68
2022/12/31 11:54:13;;;;;;;1.17;1.00;;;25.60;81.40;;;;;;5031856;28;20440;-71
2022/12/31 11:56:49;;;;;;;1.10;1.10;;;25.80;80.90;;;;;;5031936;28;20408;-71
2022/12/31 11:59:15;;;;;;;2.20;1.27;;;26.30;79.10;;;;;;5031591;28;20501;-71
2022/12/31 12:01:58;;;;;;;1.67;1.20;;;25.90;78.90;;;;;;5031771;28;20961;-71
2022/12/31 12:04:24;;;;;;;1.00;0.90;;;26.00;77.70;;;;;;5031835;28;20170;-71
2022/12/31 12:06:50;;;;;;;0.97;0.90;;;26.20;77.30;;;;;;5032150;28;20500;-71
2022/12/31 12:09:26;;;;;;;2.73;1.00;;;25.70;77.50;;;;;;5031498;28;20249;-71
2022/12/31 12:12:00;;;;;;;1.00;1.00;;;25.60;77.30;;;;;;5031577;28;20452;-71
2022/12/31 12:14:51;;;;;;;1.17;0.77;;;25.40;79.10;;;;;;5032222;28;20845;-70
2022/12/31 12:17:31;;;;;;;1.10;1.10;;;24.70;80.00;;;;;;5031793;28;20421;-69
2022/12/31 12:20:01;;;;;;;1.30;1.20;;;25.00;79.40;;;;;;5031472;28;20412;-70
2022/12/31 12:22:28;;;;;;;0.80;0.80;;;25.20;79.80;;;;;;5031678;28;20468;-70
2022/12/31 12:25:01;;;;;;;2.70;1.37;;;25.70;78.40;;;;;;5031646;28;20424;-70
2022/12/31 12:27:29;;;;;;;0.90;0.90;;;25.50;77.20;;;;;;5031745;28;20793;-69
2022/12/31 12:29:55;;;;;;;2.10;1.17;;;25.50;78.00;;;;;;5031306;28;20932;-67
2022/12/31 12:32:23;;;;;;;1.33;1.00;;;25.20;78.80;;;;;;5031566;28;20487;-70
2022/12/31 12:34:50;;;;;;;1.10;1.10;;;23.90;80.90;;;;;;5031540;28;20174;-70
2022/12/31 12:37:34;;;;;;;1.37;1.20;;;23.40;83.30;;;;;;5031713;28;20429;-70
2022/12/31 12:40:22;;;;;;;1.30;1.03;;;23.20;85.60;;;;;;5031356;28;20417;-70
2022/12/31 12:42:50;;;;;;;0.97;0.80;;;23.00;86.90;;;;;;5031415;28;20544;-70
2022/12/31 12:45:25;;;;;;;3.20;1.20;;;23.20;86.00;;;;;;5031374;28;20919;-70
2022/12/31 12:48:00;;;;;;;1.43;0.83;;;23.60;84.90;;;;;;5031509;28;20431;-71
2022/12/31 12:50:38;;;;;;;1.53;1.23;;;23.90;84.00;;;;;;5031270;28;21158;-70
2022/12/31 12:53:30;;;;;;;0.80;0.80;;;24.60;81.80;;;;;;5031293;28;20441;-70
2022/12/31 12:56:21;;;;;;;0.93;0.70;;;24.20;80.60;;;;;;5031418;28;20653;-70
2022/12/31 12:58:57;;;;;;;0.70;0.70;;;24.20;82.10;;;;;;5031156;28;20417;-70
2022/12/31 13:01:44;;;;;;;3.37;1.00;;;23.60;81.10;;;;;;5031376;28;20440;-70
2022/12/31 13:04:19;;;;;;;1.50;0.70;;;22.80;85.10;;;;;;5032968;28;20437;-69
2022/12/31 13:07:07;;;;;;;0.90;0.90;;;22.20;87.30;;;;;;5034847;28;20420;-70
2022/12/31 13:09:57;;;;;;;2.37;1.10;;;21.50;89.80;;;;;;5034527;28;20412;-69
2022/12/31 13:12:30;;;;;;;1.40;1.30;;;21.00;91.80;;;;;;5034481;28;20491;-69
2022/12/31 13:15:19;;;;;;;1.30;1.20;;;20.70;93.10;;;;;;5034655;28;20413;-69
2022/12/31 13:18:02;;;;;;;0.80;0.80;;;20.60;93.70;;;;;;5034622;28;20816;-70
2022/12/31 13:20:48;;;;;;;1.40;0.97;;;20.50;94.20;;;;;;5034238;28;20507;-69
2022/12/31 13:23:19;;;;;;;1.30;1.20;;;20.30;95.00;;;;;;5034478;28;20483;-70
2022/12/31 13:26:06;;;;;;;1.27;0.90;;;20.20;95.80;;;;;;5034581;28;20416;-70
2022/12/31 13:28:33;;;;;;;2.30;1.07;;;20.10;95.70;;;;;;5034530;28;20397;-69
2022/12/31 13:31:02;;;;;;;1.33;1.23;;;20.00;96.80;;;;;;5034383;28;20424;-69
2022/12/31 13:33:42;;;;;;;1.47;1.23;;;19.90;97.20;;;;;;5034150;28;20486;-69
2022/12/31 13:36:14;;;;;;;2.40;1.40;;;19.90;97.70;;;;;;5034291;28;20449;-69